sensor_id;sensor_type;location;lat;lon;timestamp;P1;durP1;ratioP1;P2;durP2;ratioP2
12141;SDS011;6134;59.284;18.022;2023-12-14T00:01:41;1.90;;;1.52;;
12141;SDS011;6134;59.284;18.022;2023-12-14T00:04:12;2.25;;;1.70;;
12141;SDS011;6134;59.284;18.022;2023-12-14T00:06:41;2.05;;;1.60;;
12141;SDS011;6134;59.284;18.022;2023-12-14T00:09:10;4.70;;;2.05;;
12141;SDS011;6134;59.284;18.022;2023-12-14T00:11:39;2.03;;;1.55;;
12141;SDS011;6134;59.284;18.022;2023-12-14T00:14:07;1.73;;;1.55;;
12141;SDS011;6134;59.284;18.022;2023-12-14T00:16:38;1.90;;;1.70;;
12141;SDS011;6134;59.284;18.022;2023-12-14T00:19:07;2.13;;;1.80;;
12141;SDS011;6134;59.284;18.022;2023-12-14T00:21:36;2.25;;;1.95;;
12141;SDS011;6134;59.284;18.022;2023-12-14T00:24:05;2.20;;;1.88;;
12141;SDS011;6134;59.284;18.022;2023-12-14T00:26:34;2.97;;;1.90;;
12141;SDS011;6134;59.284;18.022;2023-12-14T00:29:02;2.67;;;1.90;;
12141;SDS011;6134;59.284;18.022;2023-12-14T00:31:31;2.35;;;1.75;;
12141;SDS011;6134;59.284;18.022;2023-12-14T00:34:02;2.25;;;1.63;;
12141;SDS011;6134;59.284;18.022;2023-12-14T00:36:31;2.25;;;1.58;;
12141;SDS011;6134;59.284;18.022;2023-12-14T00:39:00;1.50;;;1.30;;
12141;SDS011;6134;59.284;18.022;2023-12-14T00:41:29;2.45;;;1.80;;
12141;SDS011;6134;59.284;18.022;2023-12-14T00:43:58;2.10;;;1.90;;
12141;SDS011;6134;59.284;18.022;2023-12-14T00:46:27;3.13;;;2.10;;
12141;SDS011;6134;59.284;18.022;2023-12-14T00:48:55;2.55;;;1.90;;
12141;SDS011;6134;59.284;18.022;2023-12-14T00:51:26;2.65;;;1.70;;
12141;SDS011;6134;59.284;18.022;2023-12-14T00:53:54;3.08;;;2.15;;
12141;SDS011;6134;59.284;18.022;2023-12-14T00:56:23;3.40;;;2.30;;
12141;SDS011;6134;59.284;18.022;2023-12-14T00:58:52;2.30;;;1.73;;
12141;SDS011;6134;59.284;18.022;2023-12-14T01:01:21;3.25;;;2.20;;
12141;SDS011;6134;59.284;18.022;2023-12-14T01:03:50;2.45;;;2.00;;
12141;SDS011;6134;59.284;18.022;2023-12-14T01:06:19;2.63;;;2.05;;
12141;SDS011;6134;59.284;18.022;2023-12-14T01:08:50;6.53;;;2.17;;
12141;SDS011;6134;59.284;18.022;2023-12-14T01:11:18;5.15;;;2.00;;
12141;SDS011;6134;59.284;18.022;2023-12-14T01:13:47;2.83;;;2.10;;
12141;SDS011;6134;59.284;18.022;2023-12-14T01:16:16;2.78;;;1.95;;
12141;SDS011;6134;59.284;18.022;2023-12-14T01:18:45;2.75;;;2.20;;
12141;SDS011;6134;59.284;18.022;2023-12-14T01:21:14;2.30;;;2.10;;
12141;SDS011;6134;59.284;18.022;2023-12-14T01:23:42;2.65;;;2.05;;
12141;SDS011;6134;59.284;18.022;2023-12-14T01:26:12;2.60;;;1.83;;
12141;SDS011;6134;59.284;18.022;2023-12-14T01:28:41;2.58;;;1.65;;
12141;SDS011;6134;59.284;18.022;2023-12-14T01:31:10;2.30;;;1.60;;
12141;SDS011;6134;59.284;18.022;2023-12-14T01:33:38;1.58;;;1.48;;
12141;SDS011;6134;59.284;18.022;2023-12-14T01:36:07;2.38;;;2.00;;
12141;SDS011;6134;59.284;18.022;2023-12-14T01:38:36;2.05;;;1.70;;
12141;SDS011;6134;59.284;18.022;2023-12-14T01:41:05;2.03;;;1.63;;
12141;SDS011;6134;59.284;18.022;2023-12-14T01:43:36;1.92;;;1.63;;
12141;SDS011;6134;59.284;18.022;2023-12-14T01:46:05;2.38;;;1.88;;
12141;SDS011;6134;59.284;18.022;2023-12-14T01:48:33;1.83;;;1.58;;
12141;SDS011;6134;59.284;18.022;2023-12-14T01:51:02;1.80;;;1.42;;
12141;SDS011;6134;59.284;18.022;2023-12-14T01:53:32;2.55;;;1.80;;
12141;SDS011;6134;59.284;18.022;2023-12-14T01:56:00;1.75;;;1.65;;
12141;SDS011;6134;59.284;18.022;2023-12-14T01:58:29;1.70;;;1.50;;
12141;SDS011;6134;59.284;18.022;2023-12-14T02:01:03;2.17;;;1.60;;
12141;SDS011;6134;59.284;18.022;2023-12-14T02:03:33;1.67;;;1.33;;
12141;SDS011;6134;59.284;18.022;2023-12-14T02:06:02;1.88;;;1.75;;
12141;SDS011;6134;59.284;18.022;2023-12-14T02:08:31;1.90;;;1.42;;
12141;SDS011;6134;59.284;18.022;2023-12-14T02:11:00;2.63;;;1.60;;
12141;SDS011;6134;59.284;18.022;2023-12-14T02:13:29;1.92;;;1.77;;
12141;SDS011;6134;59.284;18.022;2023-12-14T02:15:58;2.35;;;1.80;;
12141;SDS011;6134;59.284;18.022;2023-12-14T02:18:29;2.05;;;1.70;;
12141;SDS011;6134;59.284;18.022;2023-12-14T02:20:57;1.50;;;1.30;;
12141;SDS011;6134;59.284;18.022;2023-12-14T02:23:26;2.00;;;1.42;;
12141;SDS011;6134;59.284;18.022;2023-12-14T02:25:56;1.70;;;1.50;;
12141;SDS011;6134;59.284;18.022;2023-12-14T02:28:25;2.35;;;1.70;;
12141;SDS011;6134;59.284;18.022;2023-12-14T02:30:54;2.17;;;1.67;;
12141;SDS011;6134;59.284;18.022;2023-12-14T02:33:22;1.88;;;1.60;;
12141;SDS011;6134;59.284;18.022;2023-12-14T02:35:51;2.47;;;1.80;;
12141;SDS011;6134;59.284;18.022;2023-12-14T02:38:20;1.83;;;1.73;;
12141;SDS011;6134;59.284;18.022;2023-12-14T02:40:50;2.17;;;1.75;;
12141;SDS011;6134;59.284;18.022;2023-12-14T02:43:20;1.80;;;1.60;;
12141;SDS011;6134;59.284;18.022;2023-12-14T02:45:49;2.05;;;1.60;;
12141;SDS011;6134;59.284;18.022;2023-12-14T02:48:18;2.08;;;1.65;;
12141;SDS011;6134;59.284;18.022;2023-12-14T02:50:47;2.13;;;1.70;;
12141;SDS011;6134;59.284;18.022;2023-12-14T02:53:16;1.88;;;1.45;;
12141;SDS011;6134;59.284;18.022;2023-12-14T02:55:45;1.88;;;1.60;;
12141;SDS011;6134;59.284;18.022;2023-12-14T02:58:15;1.90;;;1.63;;
12141;SDS011;6134;59.284;18.022;2023-12-14T03:00:44;5.05;;;1.80;;
12141;SDS011;6134;59.284;18.022;2023-12-14T03:03:13;1.58;;;1.38;;
12141;SDS011;6134;59.284;18.022;2023-12-14T03:05:42;2.30;;;1.40;;
12141;SDS011;6134;59.284;18.022;2023-12-14T03:08:12;2.05;;;1.70;;
12141;SDS011;6134;59.284;18.022;2023-12-14T03:10:40;1.77;;;1.50;;
12141;SDS011;6134;59.284;18.022;2023-12-14T03:13:09;1.65;;;1.52;;
12141;SDS011;6134;59.284;18.022;2023-12-14T03:15:39;2.08;;;1.70;;
12141;SDS011;6134;59.284;18.022;2023-12-14T03:18:11;1.92;;;1.63;;
12141;SDS011;6134;59.284;18.022;2023-12-14T03:20:41;2.17;;;1.63;;
12141;SDS011;6134;59.284;18.022;2023-12-14T03:23:09;2.13;;;1.60;;
12141;SDS011;6134;59.284;18.022;2023-12-14T03:25:39;2.20;;;1.80;;
12141;SDS011;6134;59.284;18.022;2023-12-14T03:28:08;1.85;;;1.48;;
12141;SDS011;6134;59.284;18.022;2023-12-14T03:30:36;1.92;;;1.75;;
12141;SDS011;6134;59.284;18.022;2023-12-14T03:33:06;2.70;;;1.77;;
12141;SDS011;6134;59.284;18.022;2023-12-14T03:35:36;2.30;;;1.80;;
12141;SDS011;6134;59.284;18.022;2023-12-14T03:38:04;2.10;;;1.58;;
12141;SDS011;6134;59.284;18.022;2023-12-14T03:40:33;2.42;;;1.85;;
12141;SDS011;6134;59.284;18.022;2023-12-14T03:43:02;2.22;;;1.58;;
12141;SDS011;6134;59.284;18.022;2023-12-14T03:45:31;2.35;;;1.80;;
12141;SDS011;6134;59.284;18.022;2023-12-14T03:48:00;2.15;;;1.70;;
12141;SDS011;6134;59.284;18.022;2023-12-14T03:50:30;2.10;;;1.90;;
12141;SDS011;6134;59.284;18.022;2023-12-14T03:52:59;1.88;;;1.58;;
12141;SDS011;6134;59.284;18.022;2023-12-14T03:55:28;2.33;;;1.90;;
12141;SDS011;6134;59.284;18.022;2023-12-14T03:57:57;2.13;;;1.92;;
12141;SDS011;6134;59.284;18.022;2023-12-14T04:00:26;2.67;;;1.90;;
12141;SDS011;6134;59.284;18.022;2023-12-14T04:02:55;2.63;;;1.95;;
12141;SDS011;6134;59.284;18.022;2023-12-14T04:05:24;3.03;;;2.13;;
12141;SDS011;6134;59.284;18.022;2023-12-14T04:07:54;2.28;;;1.77;;
12141;SDS011;6134;59.284;18.022;2023-12-14T04:10:23;2.65;;;1.70;;
12141;SDS011;6134;59.284;18.022;2023-12-14T04:12:52;1.48;;;1.38;;
12141;SDS011;6134;59.284;18.022;2023-12-14T04:15:21;2.20;;;1.60;;
12141;SDS011;6134;59.284;18.022;2023-12-14T04:17:50;1.73;;;1.50;;
12141;SDS011;6134;59.284;18.022;2023-12-14T04:20:19;2.15;;;1.83;;
12141;SDS011;6134;59.284;18.022;2023-12-14T04:22:47;1.95;;;1.80;;
12141;SDS011;6134;59.284;18.022;2023-12-14T04:25:17;1.80;;;1.60;;
12141;SDS011;6134;59.284;18.022;2023-12-14T04:27:46;2.70;;;1.98;;
12141;SDS011;6134;59.284;18.022;2023-12-14T04:30:15;2.10;;;1.90;;
12141;SDS011;6134;59.284;18.022;2023-12-14T04:32:44;2.83;;;2.08;;
12141;SDS011;6134;59.284;18.022;2023-12-14T04:35:14;2.58;;;2.20;;
12141;SDS011;6134;59.284;18.022;2023-12-14T04:37:43;2.92;;;2.00;;
12141;SDS011;6134;59.284;18.022;2023-12-14T04:40:11;2.08;;;1.83;;
12141;SDS011;6134;59.284;18.022;2023-12-14T04:42:42;3.03;;;2.35;;
12141;SDS011;6134;59.284;18.022;2023-12-14T04:45:12;2.30;;;1.95;;
12141;SDS011;6134;59.284;18.022;2023-12-14T04:47:41;2.00;;;1.80;;
12141;SDS011;6134;59.284;18.022;2023-12-14T04:50:10;1.92;;;1.73;;
12141;SDS011;6134;59.284;18.022;2023-12-14T04:52:39;2.03;;;1.80;;
12141;SDS011;6134;59.284;18.022;2023-12-14T04:55:09;2.22;;;1.73;;
12141;SDS011;6134;59.284;18.022;2023-12-14T04:57:38;2.00;;;1.83;;
12141;SDS011;6134;59.284;18.022;2023-12-14T05:00:09;2.72;;;2.00;;
12141;SDS011;6134;59.284;18.022;2023-12-14T05:02:38;2.42;;;1.80;;
12141;SDS011;6134;59.284;18.022;2023-12-14T05:05:07;2.22;;;2.03;;
12141;SDS011;6134;59.284;18.022;2023-12-14T05:07:36;2.05;;;1.85;;
12141;SDS011;6134;59.284;18.022;2023-12-14T05:10:06;1.90;;;1.70;;
12141;SDS011;6134;59.284;18.022;2023-12-14T05:12:35;2.55;;;1.90;;
12141;SDS011;6134;59.284;18.022;2023-12-14T05:15:04;2.58;;;2.38;;
12141;SDS011;6134;59.284;18.022;2023-12-14T05:17:35;3.13;;;2.20;;
12141;SDS011;6134;59.284;18.022;2023-12-14T05:20:07;2.25;;;2.05;;
12141;SDS011;6134;59.284;18.022;2023-12-14T05:22:36;3.30;;;2.38;;
12141;SDS011;6134;59.284;18.022;2023-12-14T05:25:06;2.83;;;2.25;;
12141;SDS011;6134;59.284;18.022;2023-12-14T05:27:35;2.45;;;2.15;;
12141;SDS011;6134;59.284;18.022;2023-12-14T05:30:04;2.17;;;1.92;;
12141;SDS011;6134;59.284;18.022;2023-12-14T05:32:33;1.98;;;1.73;;
12141;SDS011;6134;59.284;18.022;2023-12-14T05:35:04;2.10;;;1.83;;
12141;SDS011;6134;59.284;18.022;2023-12-14T05:37:33;3.47;;;1.90;;
12141;SDS011;6134;59.284;18.022;2023-12-14T05:40:02;2.85;;;2.00;;
12141;SDS011;6134;59.284;18.022;2023-12-14T05:42:31;2.72;;;2.13;;
12141;SDS011;6134;59.284;18.022;2023-12-14T05:45:00;3.45;;;2.20;;
12141;SDS011;6134;59.284;18.022;2023-12-14T05:47:29;2.33;;;2.08;;
12141;SDS011;6134;59.284;18.022;2023-12-14T05:50:00;3.42;;;2.55;;
12141;SDS011;6134;59.284;18.022;2023-12-14T05:52:30;3.05;;;1.70;;
12141;SDS011;6134;59.284;18.022;2023-12-14T05:54:59;3.70;;;2.30;;
12141;SDS011;6134;59.284;18.022;2023-12-14T05:57:31;2.05;;;1.70;;
12141;SDS011;6134;59.284;18.022;2023-12-14T06:00:00;3.20;;;2.35;;
12141;SDS011;6134;59.284;18.022;2023-12-14T06:02:30;3.33;;;2.15;;
12141;SDS011;6134;59.284;18.022;2023-12-14T06:05:00;2.40;;;2.00;;
12141;SDS011;6134;59.284;18.022;2023-12-14T06:07:31;2.45;;;2.00;;
12141;SDS011;6134;59.284;18.022;2023-12-14T06:10:00;2.22;;;1.85;;
12141;SDS011;6134;59.284;18.022;2023-12-14T06:12:30;2.90;;;2.10;;
12141;SDS011;6134;59.284;18.022;2023-12-14T06:14:59;3.88;;;2.33;;
12141;SDS011;6134;59.284;18.022;2023-12-14T06:17:27;2.83;;;2.00;;
12141;SDS011;6134;59.284;18.022;2023-12-14T06:19:57;2.35;;;2.15;;
12141;SDS011;6134;59.284;18.022;2023-12-14T06:22:26;3.33;;;2.30;;
12141;SDS011;6134;59.284;18.022;2023-12-14T06:24:56;2.83;;;2.13;;
12141;SDS011;6134;59.284;18.022;2023-12-14T06:27:25;3.15;;;2.55;;
12141;SDS011;6134;59.284;18.022;2023-12-14T06:29:54;2.97;;;2.00;;
12141;SDS011;6134;59.284;18.022;2023-12-14T06:32:23;2.15;;;1.88;;
12141;SDS011;6134;59.284;18.022;2023-12-14T06:34:52;2.35;;;2.08;;
12141;SDS011;6134;59.284;18.022;2023-12-14T06:37:20;2.50;;;1.80;;
12141;SDS011;6134;59.284;18.022;2023-12-14T06:39:49;2.55;;;1.90;;
12141;SDS011;6134;59.284;18.022;2023-12-14T06:42:19;2.25;;;2.05;;
12141;SDS011;6134;59.284;18.022;2023-12-14T06:44:48;2.28;;;2.00;;
12141;SDS011;6134;59.284;18.022;2023-12-14T06:47:17;2.85;;;2.17;;
12141;SDS011;6134;59.284;18.022;2023-12-14T06:49:46;3.00;;;2.25;;
12141;SDS011;6134;59.284;18.022;2023-12-14T06:52:16;3.22;;;2.13;;
12141;SDS011;6134;59.284;18.022;2023-12-14T06:54:45;2.58;;;1.80;;
12141;SDS011;6134;59.284;18.022;2023-12-14T06:57:14;2.85;;;2.08;;
12141;SDS011;6134;59.284;18.022;2023-12-14T06:59:45;2.60;;;1.80;;
12141;SDS011;6134;59.284;18.022;2023-12-14T07:02:13;1.95;;;1.67;;
12141;SDS011;6134;59.284;18.022;2023-12-14T07:04:43;2.92;;;1.95;;
12141;SDS011;6134;59.284;18.022;2023-12-14T07:07:12;2.13;;;1.58;;
12141;SDS011;6134;59.284;18.022;2023-12-14T07:09:41;3.08;;;2.35;;
12141;SDS011;6134;59.284;18.022;2023-12-14T07:12:13;2.45;;;2.15;;
12141;SDS011;6134;59.284;18.022;2023-12-14T07:14:42;3.35;;;2.33;;
12141;SDS011;6134;59.284;18.022;2023-12-14T07:17:12;3.88;;;2.30;;
12141;SDS011;6134;59.284;18.022;2023-12-14T07:19:42;3.85;;;2.55;;
12141;SDS011;6134;59.284;18.022;2023-12-14T07:22:10;3.35;;;2.30;;
12141;SDS011;6134;59.284;18.022;2023-12-14T07:24:39;3.40;;;2.33;;
12141;SDS011;6134;59.284;18.022;2023-12-14T07:27:18;2.63;;;2.10;;
12141;SDS011;6134;59.284;18.022;2023-12-14T07:29:47;4.35;;;2.17;;
12141;SDS011;6134;59.284;18.022;2023-12-14T07:32:17;2.80;;;2.20;;
12141;SDS011;6134;59.284;18.022;2023-12-14T07:34:46;3.00;;;2.33;;
12141;SDS011;6134;59.284;18.022;2023-12-14T07:37:15;2.60;;;2.35;;
12141;SDS011;6134;59.284;18.022;2023-12-14T07:39:43;2.78;;;2.42;;
12141;SDS011;6134;59.284;18.022;2023-12-14T07:42:12;3.20;;;2.38;;
12141;SDS011;6134;59.284;18.022;2023-12-14T07:44:46;2.85;;;2.47;;
12141;SDS011;6134;59.284;18.022;2023-12-14T07:47:14;3.22;;;2.40;;
12141;SDS011;6134;59.284;18.022;2023-12-14T07:49:45;3.05;;;2.40;;
12141;SDS011;6134;59.284;18.022;2023-12-14T07:52:14;2.45;;;2.25;;
12141;SDS011;6134;59.284;18.022;2023-12-14T07:54:43;3.35;;;2.25;;
12141;SDS011;6134;59.284;18.022;2023-12-14T07:57:12;4.57;;;2.53;;
12141;SDS011;6134;59.284;18.022;2023-12-14T07:59:41;2.83;;;2.40;;
12141;SDS011;6134;59.284;18.022;2023-12-14T08:02:10;5.50;;;2.67;;
12141;SDS011;6134;59.284;18.022;2023-12-14T08:04:39;4.85;;;3.38;;
12141;SDS011;6134;59.284;18.022;2023-12-14T08:07:09;4.20;;;2.80;;
12141;SDS011;6134;59.284;18.022;2023-12-14T08:09:38;2.53;;;2.08;;
12141;SDS011;6134;59.284;18.022;2023-12-14T08:12:07;2.55;;;1.90;;
12141;SDS011;6134;59.284;18.022;2023-12-14T08:14:36;3.17;;;2.20;;
12141;SDS011;6134;59.284;18.022;2023-12-14T08:17:10;3.35;;;2.10;;
12141;SDS011;6134;59.284;18.022;2023-12-14T08:19:39;2.58;;;1.88;;
12141;SDS011;6134;59.284;18.022;2023-12-14T08:22:09;3.15;;;1.95;;
12141;SDS011;6134;59.284;18.022;2023-12-14T08:24:39;2.13;;;1.83;;
12141;SDS011;6134;59.284;18.022;2023-12-14T08:27:07;2.42;;;2.10;;
12141;SDS011;6134;59.284;18.022;2023-12-14T08:29:36;2.30;;;1.92;;
12141;SDS011;6134;59.284;18.022;2023-12-14T08:32:05;2.95;;;1.90;;
12141;SDS011;6134;59.284;18.022;2023-12-14T08:34:34;2.95;;;2.05;;
12141;SDS011;6134;59.284;18.022;2023-12-14T08:37:03;2.17;;;1.70;;
12141;SDS011;6134;59.284;18.022;2023-12-14T08:39:33;2.50;;;2.10;;
12141;SDS011;6134;59.284;18.022;2023-12-14T08:42:02;2.78;;;2.00;;
12141;SDS011;6134;59.284;18.022;2023-12-14T08:44:31;2.10;;;1.73;;
12141;SDS011;6134;59.284;18.022;2023-12-14T08:47:00;3.63;;;2.65;;
12141;SDS011;6134;59.284;18.022;2023-12-14T08:49:30;3.35;;;2.22;;
12141;SDS011;6134;59.284;18.022;2023-12-14T08:51:59;2.97;;;2.25;;
12141;SDS011;6134;59.284;18.022;2023-12-14T08:54:28;4.55;;;2.63;;
12141;SDS011;6134;59.284;18.022;2023-12-14T08:56:58;3.40;;;2.08;;
12141;SDS011;6134;59.284;18.022;2023-12-14T08:59:28;3.40;;;2.20;;
12141;SDS011;6134;59.284;18.022;2023-12-14T09:01:57;3.47;;;2.25;;
12141;SDS011;6134;59.284;18.022;2023-12-14T09:04:27;2.53;;;2.15;;
12141;SDS011;6134;59.284;18.022;2023-12-14T09:06:56;3.25;;;2.15;;
12141;SDS011;6134;59.284;18.022;2023-12-14T09:09:24;4.05;;;2.60;;
12141;SDS011;6134;59.284;18.022;2023-12-14T09:11:53;2.92;;;2.35;;
12141;SDS011;6134;59.284;18.022;2023-12-14T09:14:23;2.50;;;2.30;;
12141;SDS011;6134;59.284;18.022;2023-12-14T09:16:52;3.90;;;2.45;;
12141;SDS011;6134;59.284;18.022;2023-12-14T09:19:21;5.55;;;2.58;;
12141;SDS011;6134;59.284;18.022;2023-12-14T09:21:50;2.58;;;2.10;;
12141;SDS011;6134;59.284;18.022;2023-12-14T09:24:19;4.18;;;2.40;;
12141;SDS011;6134;59.284;18.022;2023-12-14T09:26:48;2.83;;;2.33;;
12141;SDS011;6134;59.284;18.022;2023-12-14T09:29:17;4.90;;;3.10;;
12141;SDS011;6134;59.284;18.022;2023-12-14T09:31:47;3.33;;;2.20;;
12141;SDS011;6134;59.284;18.022;2023-12-14T09:34:17;3.03;;;2.25;;
12141;SDS011;6134;59.284;18.022;2023-12-14T09:36:45;2.53;;;2.30;;
12141;SDS011;6134;59.284;18.022;2023-12-14T09:39:14;2.95;;;2.28;;
12141;SDS011;6134;59.284;18.022;2023-12-14T09:41:45;3.42;;;2.50;;
12141;SDS011;6134;59.284;18.022;2023-12-14T09:44:14;2.97;;;2.20;;
12141;SDS011;6134;59.284;18.022;2023-12-14T09:46:43;2.85;;;2.25;;
12141;SDS011;6134;59.284;18.022;2023-12-14T09:49:17;3.88;;;2.30;;
12141;SDS011;6134;59.284;18.022;2023-12-14T09:51:46;3.08;;;2.35;;
12141;SDS011;6134;59.284;18.022;2023-12-14T09:54:15;3.63;;;2.30;;
12141;SDS011;6134;59.284;18.022;2023-12-14T09:56:47;2.88;;;2.58;;
12141;SDS011;6134;59.284;18.022;2023-12-14T09:59:16;3.05;;;2.53;;
12141;SDS011;6134;59.284;18.022;2023-12-14T10:01:45;2.58;;;2.13;;
12141;SDS011;6134;59.284;18.022;2023-12-14T10:04:14;3.83;;;2.20;;
12141;SDS011;6134;59.284;18.022;2023-12-14T10:06:45;2.38;;;2.15;;
12141;SDS011;6134;59.284;18.022;2023-12-14T10:09:14;2.33;;;2.13;;
12141;SDS011;6134;59.284;18.022;2023-12-14T10:11:45;4.22;;;2.67;;
12141;SDS011;6134;59.284;18.022;2023-12-14T10:14:23;3.60;;;2.78;;
12141;SDS011;6134;59.284;18.022;2023-12-14T10:16:53;3.75;;;2.65;;
12141;SDS011;6134;59.284;18.022;2023-12-14T10:19:29;3.42;;;2.50;;
12141;SDS011;6134;59.284;18.022;2023-12-14T10:21:59;2.72;;;2.22;;
12141;SDS011;6134;59.284;18.022;2023-12-14T10:24:31;3.63;;;2.33;;
12141;SDS011;6134;59.284;18.022;2023-12-14T10:27:02;8.15;;;2.30;;
12141;SDS011;6134;59.284;18.022;2023-12-14T10:29:33;2.63;;;1.98;;
12141;SDS011;6134;59.284;18.022;2023-12-14T10:32:03;3.88;;;2.20;;
12141;SDS011;6134;59.284;18.022;2023-12-14T10:34:34;2.58;;;1.90;;
12141;SDS011;6134;59.284;18.022;2023-12-14T10:37:04;3.88;;;2.50;;
12141;SDS011;6134;59.284;18.022;2023-12-14T10:39:34;2.75;;;2.28;;
12141;SDS011;6134;59.284;18.022;2023-12-14T10:42:03;3.50;;;1.95;;
12141;SDS011;6134;59.284;18.022;2023-12-14T10:44:45;3.28;;;2.30;;
12141;SDS011;6134;59.284;18.022;2023-12-14T10:47:33;3.45;;;2.55;;
12141;SDS011;6134;59.284;18.022;2023-12-14T10:50:03;4.80;;;2.20;;
12141;SDS011;6134;59.284;18.022;2023-12-14T10:52:35;3.45;;;2.42;;
12141;SDS011;6134;59.284;18.022;2023-12-14T10:55:04;3.95;;;2.80;;
12141;SDS011;6134;59.284;18.022;2023-12-14T10:57:35;4.35;;;2.50;;
12141;SDS011;6134;59.284;18.022;2023-12-14T11:00:06;3.05;;;2.13;;
12141;SDS011;6134;59.284;18.022;2023-12-14T11:02:39;2.75;;;2.15;;
12141;SDS011;6134;59.284;18.022;2023-12-14T11:05:10;3.50;;;2.42;;
12141;SDS011;6134;59.284;18.022;2023-12-14T11:07:44;2.90;;;2.22;;
12141;SDS011;6134;59.284;18.022;2023-12-14T11:10:13;6.10;;;3.72;;
12141;SDS011;6134;59.284;18.022;2023-12-14T11:12:50;4.43;;;2.78;;
12141;SDS011;6134;59.284;18.022;2023-12-14T11:15:19;2.88;;;2.20;;
12141;SDS011;6134;59.284;18.022;2023-12-14T11:20:47;3.75;;;2.45;;
12141;SDS011;6134;59.284;18.022;2023-12-14T11:23:18;3.92;;;2.40;;
12141;SDS011;6134;59.284;18.022;2023-12-14T11:25:57;3.72;;;2.13;;
12141;SDS011;6134;59.284;18.022;2023-12-14T11:28:26;3.05;;;1.92;;
12141;SDS011;6134;59.284;18.022;2023-12-14T11:30:56;4.93;;;2.80;;
12141;SDS011;6134;59.284;18.022;2023-12-14T11:33:25;4.05;;;2.65;;
12141;SDS011;6134;59.284;18.022;2023-12-14T11:35:55;3.22;;;2.63;;
12141;SDS011;6134;59.284;18.022;2023-12-14T11:38:26;2.70;;;1.90;;
12141;SDS011;6134;59.284;18.022;2023-12-14T11:40:55;3.33;;;2.35;;
12141;SDS011;6134;59.284;18.022;2023-12-14T11:43:24;4.70;;;2.30;;
12141;SDS011;6134;59.284;18.022;2023-12-14T11:45:53;3.03;;;2.38;;
12141;SDS011;6134;59.284;18.022;2023-12-14T11:48:22;2.13;;;1.92;;
12141;SDS011;6134;59.284;18.022;2023-12-14T11:50:51;3.63;;;2.90;;
12141;SDS011;6134;59.284;18.022;2023-12-14T11:53:20;3.45;;;2.20;;
12141;SDS011;6134;59.284;18.022;2023-12-14T11:55:51;4.95;;;2.63;;
12141;SDS011;6134;59.284;18.022;2023-12-14T11:58:21;3.70;;;2.40;;
12141;SDS011;6134;59.284;18.022;2023-12-14T12:00:52;3.28;;;1.92;;
12141;SDS011;6134;59.284;18.022;2023-12-14T12:03:22;2.88;;;2.13;;
12141;SDS011;6134;59.284;18.022;2023-12-14T12:05:51;2.72;;;1.90;;
12141;SDS011;6134;59.284;18.022;2023-12-14T12:08:20;2.65;;;2.13;;
12141;SDS011;6134;59.284;18.022;2023-12-14T12:10:50;3.50;;;2.20;;
12141;SDS011;6134;59.284;18.022;2023-12-14T12:13:20;3.60;;;2.13;;
12141;SDS011;6134;59.284;18.022;2023-12-14T12:15:49;3.83;;;2.10;;
12141;SDS011;6134;59.284;18.022;2023-12-14T12:18:17;2.88;;;1.90;;
12141;SDS011;6134;59.284;18.022;2023-12-14T12:20:46;3.15;;;2.03;;
12141;SDS011;6134;59.284;18.022;2023-12-14T12:23:15;2.38;;;1.65;;
12141;SDS011;6134;59.284;18.022;2023-12-14T12:25:45;2.42;;;1.90;;
12141;SDS011;6134;59.284;18.022;2023-12-14T12:28:14;4.10;;;2.08;;
12141;SDS011;6134;59.284;18.022;2023-12-14T12:30:44;3.20;;;1.92;;
12141;SDS011;6134;59.284;18.022;2023-12-14T12:33:13;1.60;;;1.48;;
12141;SDS011;6134;59.284;18.022;2023-12-14T12:35:42;2.38;;;1.88;;
12141;SDS011;6134;59.284;18.022;2023-12-14T12:38:11;2.55;;;1.83;;
12141;SDS011;6134;59.284;18.022;2023-12-14T12:40:41;2.20;;;1.90;;
12141;SDS011;6134;59.284;18.022;2023-12-14T12:43:10;2.47;;;1.75;;
12141;SDS011;6134;59.284;18.022;2023-12-14T12:45:39;1.70;;;1.60;;
12141;SDS011;6134;59.284;18.022;2023-12-14T12:48:09;2.38;;;1.83;;
12141;SDS011;6134;59.284;18.022;2023-12-14T12:50:38;2.03;;;1.60;;
12141;SDS011;6134;59.284;18.022;2023-12-14T12:53:07;2.60;;;1.70;;
12141;SDS011;6134;59.284;18.022;2023-12-14T12:55:36;2.03;;;1.48;;
12141;SDS011;6134;59.284;18.022;2023-12-14T12:58:05;2.03;;;1.88;;
12141;SDS011;6134;59.284;18.022;2023-12-14T13:00:34;3.30;;;1.95;;
12141;SDS011;6134;59.284;18.022;2023-12-14T13:03:04;3.15;;;1.60;;
12141;SDS011;6134;59.284;18.022;2023-12-14T13:05:35;2.53;;;2.00;;
12141;SDS011;6134;59.284;18.022;2023-12-14T13:08:04;2.42;;;2.15;;
12141;SDS011;6134;59.284;18.022;2023-12-14T13:10:33;2.42;;;1.58;;
12141;SDS011;6134;59.284;18.022;2023-12-14T13:13:04;2.55;;;1.73;;
12141;SDS011;6134;59.284;18.022;2023-12-14T13:15:34;2.20;;;1.80;;
12141;SDS011;6134;59.284;18.022;2023-12-14T13:18:03;4.30;;;2.17;;
12141;SDS011;6134;59.284;18.022;2023-12-14T13:20:32;2.17;;;1.98;;
12141;SDS011;6134;59.284;18.022;2023-12-14T13:23:02;2.92;;;1.70;;
12141;SDS011;6134;59.284;18.022;2023-12-14T13:25:31;1.42;;;1.33;;
12141;SDS011;6134;59.284;18.022;2023-12-14T13:28:00;2.92;;;1.75;;
12141;SDS011;6134;59.284;18.022;2023-12-14T13:30:30;2.55;;;1.60;;
12141;SDS011;6134;59.284;18.022;2023-12-14T13:32:59;2.08;;;1.75;;
12141;SDS011;6134;59.284;18.022;2023-12-14T13:35:27;2.20;;;1.83;;
12141;SDS011;6134;59.284;18.022;2023-12-14T13:37:57;3.22;;;1.83;;
12141;SDS011;6134;59.284;18.022;2023-12-14T13:40:28;1.95;;;1.75;;
12141;SDS011;6134;59.284;18.022;2023-12-14T13:42:56;1.60;;;1.50;;
12141;SDS011;6134;59.284;18.022;2023-12-14T13:45:33;1.70;;;1.55;;
12141;SDS011;6134;59.284;18.022;2023-12-14T13:48:02;2.22;;;1.70;;
12141;SDS011;6134;59.284;18.022;2023-12-14T13:50:31;1.63;;;1.50;;
12141;SDS011;6134;59.284;18.022;2023-12-14T13:53:00;2.50;;;1.90;;
12141;SDS011;6134;59.284;18.022;2023-12-14T13:55:31;2.25;;;1.80;;
12141;SDS011;6134;59.284;18.022;2023-12-14T13:58:01;2.58;;;1.67;;
12141;SDS011;6134;59.284;18.022;2023-12-14T14:00:30;1.90;;;1.70;;
12141;SDS011;6134;59.284;18.022;2023-12-14T14:03:01;1.55;;;1.42;;
12141;SDS011;6134;59.284;18.022;2023-12-14T14:05:30;2.25;;;1.88;;
12141;SDS011;6134;59.284;18.022;2023-12-14T14:07:59;1.95;;;1.65;;
12141;SDS011;6134;59.284;18.022;2023-12-14T14:10:28;2.35;;;1.77;;
12141;SDS011;6134;59.284;18.022;2023-12-14T14:12:58;2.35;;;1.90;;
12141;SDS011;6134;59.284;18.022;2023-12-14T14:15:27;2.40;;;1.60;;
12141;SDS011;6134;59.284;18.022;2023-12-14T14:17:56;2.28;;;1.63;;
12141;SDS011;6134;59.284;18.022;2023-12-14T14:20:26;2.88;;;2.10;;
12141;SDS011;6134;59.284;18.022;2023-12-14T14:22:55;1.90;;;1.70;;
12141;SDS011;6134;59.284;18.022;2023-12-14T14:25:26;2.20;;;1.63;;
12141;SDS011;6134;59.284;18.022;2023-12-14T14:27:55;3.35;;;2.05;;
12141;SDS011;6134;59.284;18.022;2023-12-14T14:30:26;2.45;;;1.98;;
12141;SDS011;6134;59.284;18.022;2023-12-14T14:32:55;2.38;;;1.90;;
12141;SDS011;6134;59.284;18.022;2023-12-14T14:35:24;2.13;;;1.65;;
12141;SDS011;6134;59.284;18.022;2023-12-14T14:37:54;2.00;;;1.77;;
12141;SDS011;6134;59.284;18.022;2023-12-14T14:40:23;2.17;;;1.80;;
12141;SDS011;6134;59.284;18.022;2023-12-14T14:42:52;2.20;;;1.98;;
12141;SDS011;6134;59.284;18.022;2023-12-14T14:45:21;1.73;;;1.50;;
12141;SDS011;6134;59.284;18.022;2023-12-14T14:47:51;2.67;;;2.00;;
12141;SDS011;6134;59.284;18.022;2023-12-14T14:50:20;2.15;;;1.92;;
12141;SDS011;6134;59.284;18.022;2023-12-14T14:52:49;2.28;;;1.90;;
12141;SDS011;6134;59.284;18.022;2023-12-14T14:55:18;2.17;;;1.73;;
12141;SDS011;6134;59.284;18.022;2023-12-14T14:57:48;2.63;;;2.08;;
12141;SDS011;6134;59.284;18.022;2023-12-14T15:00:17;2.47;;;1.65;;
12141;SDS011;6134;59.284;18.022;2023-12-14T15:02:47;2.17;;;1.60;;
12141;SDS011;6134;59.284;18.022;2023-12-14T15:05:17;3.33;;;1.95;;